sensor_id;sensor_type;location;lat;lon;timestamp;temperature;humidity
6118;DHT22;3089;48.202;11.510;2023-09-19T00:00:38;17.50;99.90
6118;DHT22;3089;48.202;11.510;2023-09-19T00:03:08;17.40;99.90
6118;DHT22;3089;48.202;11.510;2023-09-19T00:05:37;17.40;99.90
6118;DHT22;3089;48.202;11.510;2023-09-19T00:08:06;17.30;99.90
6118;DHT22;3089;48.202;11.510;2023-09-19T00:10:34;17.40;99.90
6118;DHT22;3089;48.202;11.510;2023-09-19T00:13:04;17.30;99.90
6118;DHT22;3089;48.202;11.510;2023-09-19T00:15:37;17.30;99.90
6118;DHT22;3089;48.202;11.510;2023-09-19T00:18:06;17.30;99.90
6118;DHT22;3089;48.202;11.510;2023-09-19T00:20:35;17.30;99.90
6118;DHT22;3089;48.202;11.510;2023-09-19T00:23:03;17.30;99.90
6118;DHT22;3089;48.202;11.510;2023-09-19T00:25:35;17.20;99.90
6118;DHT22;3089;48.202;11.510;2023-09-19T00:28:06;17.30;99.90
6118;DHT22;3089;48.202;11.510;2023-09-19T00:30:34;17.30;99.90
6118;DHT22;3089;48.202;11.510;2023-09-19T00:33:05;17.30;99.90
6118;DHT22;3089;48.202;11.510;2023-09-19T00:35:34;17.30;99.90
6118;DHT22;3089;48.202;11.510;2023-09-19T00:38:03;17.30;99.90
6118;DHT22;3089;48.202;11.510;2023-09-19T00:40:33;17.30;99.90
6118;DHT22;3089;48.202;11.510;2023-09-19T00:43:02;17.30;99.90
6118;DHT22;3089;48.202;11.510;2023-09-19T00:45:32;17.20;99.90
6118;DHT22;3089;48.202;11.510;2023-09-19T00:48:01;17.20;99.90
6118;DHT22;3089;48.202;11.510;2023-09-19T00:50:41;17.10;99.90
6118;DHT22;3089;48.202;11.510;2023-09-19T00:53:14;17.10;99.90
6118;DHT22;3089;48.202;11.510;2023-09-19T00:55:45;17.00;99.90
6118;DHT22;3089;48.202;11.510;2023-09-19T00:58:13;17.00;99.90
6118;DHT22;3089;48.202;11.510;2023-09-19T01:00:42;17.00;99.90
6118;DHT22;3089;48.202;11.510;2023-09-19T01:03:11;17.10;99.90
6118;DHT22;3089;48.202;11.510;2023-09-19T01:05:40;17.20;99.90
6118;DHT22;3089;48.202;11.510;2023-09-19T01:08:08;17.20;99.90
6118;DHT22;3089;48.202;11.510;2023-09-19T01:10:43;17.20;99.90
6118;DHT22;3089;48.202;11.510;2023-09-19T01:13:22;17.20;99.90
6118;DHT22;3089;48.202;11.510;2023-09-19T01:15:59;17.20;99.90
6118;DHT22;3089;48.202;11.510;2023-09-19T01:18:35;17.20;99.90
6118;DHT22;3089;48.202;11.510;2023-09-19T01:21:17;17.20;99.90
6118;DHT22;3089;48.202;11.510;2023-09-19T01:24:10;17.20;99.90
6118;DHT22;3089;48.202;11.510;2023-09-19T01:26:56;17.20;99.90
6118;DHT22;3089;48.202;11.510;2023-09-19T01:29:36;17.20;99.90
6118;DHT22;3089;48.202;11.510;2023-09-19T01:32:09;17.20;99.90
6118;DHT22;3089;48.202;11.510;2023-09-19T01:34:46;17.20;99.90
6118;DHT22;3089;48.202;11.510;2023-09-19T01:37:15;17.20;99.90
6118;DHT22;3089;48.202;11.510;2023-09-19T01:39:47;17.20;99.90
6118;DHT22;3089;48.202;11.510;2023-09-19T01:42:24;17.10;99.90
6118;DHT22;3089;48.202;11.510;2023-09-19T01:44:59;17.20;99.90
6118;DHT22;3089;48.202;11.510;2023-09-19T01:47:35;17.10;99.90
6118;DHT22;3089;48.202;11.510;2023-09-19T01:50:13;17.10;99.90
6118;DHT22;3089;48.202;11.510;2023-09-19T01:52:49;17.10;99.90
6118;DHT22;3089;48.202;11.510;2023-09-19T01:55:19;17.10;99.90
6118;DHT22;3089;48.202;11.510;2023-09-19T01:57:54;17.10;99.90
6118;DHT22;3089;48.202;11.510;2023-09-19T02:00:23;17.10;99.90
6118;DHT22;3089;48.202;11.510;2023-09-19T02:02:53;17.10;99.90
6118;DHT22;3089;48.202;11.510;2023-09-19T02:05:23;17.10;99.90
6118;DHT22;3089;48.202;11.510;2023-09-19T02:07:52;17.00;99.90
6118;DHT22;3089;48.202;11.510;2023-09-19T02:10:20;17.10;99.90
6118;DHT22;3089;48.202;11.510;2023-09-19T02:12:49;17.00;99.90
6118;DHT22;3089;48.202;11.510;2023-09-19T02:15:18;17.00;99.90
6118;DHT22;3089;48.202;11.510;2023-09-19T02:17:46;17.00;99.90
6118;DHT22;3089;48.202;11.510;2023-09-19T02:20:15;17.00;99.90
6118;DHT22;3089;48.202;11.510;2023-09-19T02:22:43;17.00;99.90
6118;DHT22;3089;48.202;11.510;2023-09-19T02:25:11;17.00;99.90
6118;DHT22;3089;48.202;11.510;2023-09-19T02:27:40;17.00;99.90
6118;DHT22;3089;48.202;11.510;2023-09-19T02:30:09;17.00;99.90
6118;DHT22;3089;48.202;11.510;2023-09-19T02:32:37;17.00;99.90
6118;DHT22;3089;48.202;11.510;2023-09-19T02:35:07;17.00;99.90
6118;DHT22;3089;48.202;11.510;2023-09-19T02:37:39;17.00;99.90
6118;DHT22;3089;48.202;11.510;2023-09-19T02:40:08;17.00;99.90
6118;DHT22;3089;48.202;11.510;2023-09-19T02:42:46;17.00;99.90
6118;DHT22;3089;48.202;11.510;2023-09-19T02:45:17;17.00;99.90
6118;DHT22;3089;48.202;11.510;2023-09-19T02:47:46;16.90;99.90
6118;DHT22;3089;48.202;11.510;2023-09-19T02:50:14;17.00;99.90
6118;DHT22;3089;48.202;11.510;2023-09-19T02:52:46;17.00;99.90
6118;DHT22;3089;48.202;11.510;2023-09-19T02:55:16;16.90;99.90
6118;DHT22;3089;48.202;11.510;2023-09-19T02:57:46;17.00;99.90
6118;DHT22;3089;48.202;11.510;2023-09-19T03:00:15;16.90;99.90
6118;DHT22;3089;48.202;11.510;2023-09-19T03:02:43;17.00;99.90
6118;DHT22;3089;48.202;11.510;2023-09-19T03:05:13;17.00;99.90
6118;DHT22;3089;48.202;11.510;2023-09-19T03:07:41;17.00;99.90
6118;DHT22;3089;48.202;11.510;2023-09-19T03:10:14;17.00;99.90
6118;DHT22;3089;48.202;11.510;2023-09-19T03:12:42;16.90;99.90
6118;DHT22;3089;48.202;11.510;2023-09-19T03:15:10;16.90;99.90
6118;DHT22;3089;48.202;11.510;2023-09-19T03:17:42;16.90;99.90
6118;DHT22;3089;48.202;11.510;2023-09-19T03:20:11;16.90;99.90
6118;DHT22;3089;48.202;11.510;2023-09-19T03:22:40;16.90;99.90
6118;DHT22;3089;48.202;11.510;2023-09-19T03:25:09;16.90;99.90
6118;DHT22;3089;48.202;11.510;2023-09-19T03:27:40;17.00;99.90
6118;DHT22;3089;48.202;11.510;2023-09-19T03:30:08;17.00;99.90
6118;DHT22;3089;48.202;11.510;2023-09-19T03:32:44;16.90;99.90
6118;DHT22;3089;48.202;11.510;2023-09-19T03:35:12;16.90;99.90
6118;DHT22;3089;48.202;11.510;2023-09-19T03:37:41;16.90;99.90
6118;DHT22;3089;48.202;11.510;2023-09-19T03:40:09;16.80;99.90
6118;DHT22;3089;48.202;11.510;2023-09-19T03:42:39;16.70;99.90
6118;DHT22;3089;48.202;11.510;2023-09-19T03:45:08;16.80;99.90
6118;DHT22;3089;48.202;11.510;2023-09-19T03:47:38;16.80;99.90
6118;DHT22;3089;48.202;11.510;2023-09-19T03:50:08;16.80;99.90
6118;DHT22;3089;48.202;11.510;2023-09-19T03:52:38;16.80;99.90
6118;DHT22;3089;48.202;11.510;2023-09-19T03:55:06;16.70;99.90
6118;DHT22;3089;48.202;11.510;2023-09-19T03:57:36;16.70;99.90
6118;DHT22;3089;48.202;11.510;2023-09-19T04:00:07;16.80;99.90
6118;DHT22;3089;48.202;11.510;2023-09-19T04:02:39;16.80;99.90
6118;DHT22;3089;48.202;11.510;2023-09-19T04:05:08;16.70;99.90
6118;DHT22;3089;48.202;11.510;2023-09-19T04:07:36;16.80;99.90
6118;DHT22;3089;48.202;11.510;2023-09-19T04:10:04;16.80;99.90
6118;DHT22;3089;48.202;11.510;2023-09-19T04:12:32;16.70;99.90
6118;DHT22;3089;48.202;11.510;2023-09-19T04:15:00;16.80;99.90
6118;DHT22;3089;48.202;11.510;2023-09-19T04:17:30;16.80;99.90
6118;DHT22;3089;48.202;11.510;2023-09-19T04:20:00;16.80;99.90
6118;DHT22;3089;48.202;11.510;2023-09-19T04:22:27;16.80;99.90
6118;DHT22;3089;48.202;11.510;2023-09-19T04:24:55;16.80;99.90
6118;DHT22;3089;48.202;11.510;2023-09-19T04:27:23;16.80;99.90
6118;DHT22;3089;48.202;11.510;2023-09-19T04:29:51;16.80;99.90
6118;DHT22;3089;48.202;11.510;2023-09-19T04:32:19;16.80;99.90
6118;DHT22;3089;48.202;11.510;2023-09-19T04:34:49;16.80;99.90
6118;DHT22;3089;48.202;11.510;2023-09-19T04:37:17;16.80;99.90
6118;DHT22;3089;48.202;11.510;2023-09-19T04:39:45;16.70;99.90
6118;DHT22;3089;48.202;11.510;2023-09-19T04:42:13;16.80;99.90
6118;DHT22;3089;48.202;11.510;2023-09-19T04:44:42;16.70;99.90
6118;DHT22;3089;48.202;11.510;2023-09-19T04:47:09;16.80;99.90
6118;DHT22;3089;48.202;11.510;2023-09-19T04:49:39;16.80;99.90
6118;DHT22;3089;48.202;11.510;2023-09-19T04:52:08;16.80;99.90
6118;DHT22;3089;48.202;11.510;2023-09-19T04:54:36;16.70;99.90
6118;DHT22;3089;48.202;11.510;2023-09-19T04:57:05;16.80;99.90
6118;DHT22;3089;48.202;11.510;2023-09-19T04:59:33;16.80;99.90
6118;DHT22;3089;48.202;11.510;2023-09-19T05:02:01;16.70;99.90
6118;DHT22;3089;48.202;11.510;2023-09-19T05:04:29;16.70;99.90
6118;DHT22;3089;48.202;11.510;2023-09-19T05:06:57;16.70;99.90
6118;DHT22;3089;48.202;11.510;2023-09-19T05:09:26;16.60;99.90
6118;DHT22;3089;48.202;11.510;2023-09-19T05:11:54;16.70;99.90
6118;DHT22;3089;48.202;11.510;2023-09-19T05:14:23;16.60;99.90
6118;DHT22;3089;48.202;11.510;2023-09-19T05:16:51;16.70;99.90
6118;DHT22;3089;48.202;11.510;2023-09-19T05:19:19;16.70;99.90
6118;DHT22;3089;48.202;11.510;2023-09-19T05:21:47;16.70;99.90
6118;DHT22;3089;48.202;11.510;2023-09-19T05:24:15;16.70;99.90
6118;DHT22;3089;48.202;11.510;2023-09-19T05:26:45;16.60;99.90
6118;DHT22;3089;48.202;11.510;2023-09-19T05:29:13;16.70;99.90
6118;DHT22;3089;48.202;11.510;2023-09-19T05:31:40;16.60;99.90
6118;DHT22;3089;48.202;11.510;2023-09-19T05:34:09;16.60;99.90
6118;DHT22;3089;48.202;11.510;2023-09-19T05:36:37;16.60;99.90
6118;DHT22;3089;48.202;11.510;2023-09-19T05:39:06;16.60;99.90
6118;DHT22;3089;48.202;11.510;2023-09-19T05:41:36;16.60;99.90
6118;DHT22;3089;48.202;11.510;2023-09-19T05:44:08;16.60;99.90
6118;DHT22;3089;48.202;11.510;2023-09-19T05:46:36;16.60;99.90
6118;DHT22;3089;48.202;11.510;2023-09-19T05:49:04;16.60;99.90
6118;DHT22;3089;48.202;11.510;2023-09-19T05:51:32;16.60;99.90
6118;DHT22;3089;48.202;11.510;2023-09-19T05:53:59;16.60;99.90
6118;DHT22;3089;48.202;11.510;2023-09-19T05:56:27;16.60;99.90
6118;DHT22;3089;48.202;11.510;2023-09-19T05:58:55;16.70;99.90
6118;DHT22;3089;48.202;11.510;2023-09-19T06:01:25;16.80;99.90
6118;DHT22;3089;48.202;11.510;2023-09-19T06:03:53;16.80;99.90
6118;DHT22;3089;48.202;11.510;2023-09-19T06:06:21;16.80;99.90
6118;DHT22;3089;48.202;11.510;2023-09-19T06:08:50;16.80;99.90
6118;DHT22;3089;48.202;11.510;2023-09-19T06:11:18;16.80;99.90
6118;DHT22;3089;48.202;11.510;2023-09-19T06:13:47;16.90;99.90
6118;DHT22;3089;48.202;11.510;2023-09-19T06:16:15;16.80;99.90
6118;DHT22;3089;48.202;11.510;2023-09-19T06:18:45;16.80;99.90
6118;DHT22;3089;48.202;11.510;2023-09-19T06:21:13;16.90;99.90
6118;DHT22;3089;48.202;11.510;2023-09-19T06:23:41;16.90;99.90
6118;DHT22;3089;48.202;11.510;2023-09-19T06:26:09;16.90;99.90
6118;DHT22;3089;48.202;11.510;2023-09-19T06:28:36;17.00;99.90
6118;DHT22;3089;48.202;11.510;2023-09-19T06:31:04;17.00;99.90
6118;DHT22;3089;48.202;11.510;2023-09-19T06:33:36;17.10;99.90
6118;DHT22;3089;48.202;11.510;2023-09-19T06:36:07;17.00;99.90
6118;DHT22;3089;48.202;11.510;2023-09-19T06:38:35;17.00;99.90
6118;DHT22;3089;48.202;11.510;2023-09-19T06:41:03;19.40;99.90
6118;DHT22;3089;48.202;11.510;2023-09-19T06:43:34;20.50;99.90
6118;DHT22;3089;48.202;11.510;2023-09-19T06:46:02;21.40;99.90
6118;DHT22;3089;48.202;11.510;2023-09-19T06:48:30;21.50;99.90
6118;DHT22;3089;48.202;11.510;2023-09-19T06:51:00;20.50;99.90
6118;DHT22;3089;48.202;11.510;2023-09-19T06:53:32;19.70;99.90
6118;DHT22;3089;48.202;11.510;2023-09-19T06:56:01;18.50;99.90
6118;DHT22;3089;48.202;11.510;2023-09-19T06:58:29;17.90;99.90
6118;DHT22;3089;48.202;11.510;2023-09-19T07:00:58;17.70;99.90
6118;DHT22;3089;48.202;11.510;2023-09-19T07:03:26;17.60;99.90
6118;DHT22;3089;48.202;11.510;2023-09-19T07:05:55;17.60;99.90
6118;DHT22;3089;48.202;11.510;2023-09-19T07:08:25;17.60;99.90
6118;DHT22;3089;48.202;11.510;2023-09-19T07:10:56;17.60;99.90
6118;DHT22;3089;48.202;11.510;2023-09-19T07:13:24;17.70;99.90
6118;DHT22;3089;48.202;11.510;2023-09-19T07:15:52;17.70;99.90
6118;DHT22;3089;48.202;11.510;2023-09-19T07:18:21;17.70;99.90
6118;DHT22;3089;48.202;11.510;2023-09-19T07:20:49;17.60;99.90
6118;DHT22;3089;48.202;11.510;2023-09-19T07:23:17;17.60;99.90
6118;DHT22;3089;48.202;11.510;2023-09-19T07:25:46;17.70;99.90
6118;DHT22;3089;48.202;11.510;2023-09-19T07:28:15;17.70;99.90
6118;DHT22;3089;48.202;11.510;2023-09-19T07:30:43;17.80;99.90
6118;DHT22;3089;48.202;11.510;2023-09-19T07:33:11;18.00;99.90
6118;DHT22;3089;48.202;11.510;2023-09-19T07:35:39;17.90;99.90
6118;DHT22;3089;48.202;11.510;2023-09-19T07:38:08;17.90;99.90
6118;DHT22;3089;48.202;11.510;2023-09-19T07:40:38;18.00;99.90
6118;DHT22;3089;48.202;11.510;2023-09-19T07:43:06;18.00;99.90
6118;DHT22;3089;48.202;11.510;2023-09-19T07:45:36;18.00;99.90
6118;DHT22;3089;48.202;11.510;2023-09-19T07:48:05;18.00;99.90
6118;DHT22;3089;48.202;11.510;2023-09-19T07:50:40;17.90;99.90
6118;DHT22;3089;48.202;11.510;2023-09-19T07:53:10;18.00;99.90
6118;DHT22;3089;48.202;11.510;2023-09-19T07:55:40;18.20;99.90
6118;DHT22;3089;48.202;11.510;2023-09-19T07:58:08;18.20;99.90
6118;DHT22;3089;48.202;11.510;2023-09-19T08:00:37;18.20;99.90
6118;DHT22;3089;48.202;11.510;2023-09-19T08:03:05;18.10;99.90
6118;DHT22;3089;48.202;11.510;2023-09-19T08:05:42;18.10;99.90
6118;DHT22;3089;48.202;11.510;2023-09-19T08:08:11;18.20;99.90
6118;DHT22;3089;48.202;11.510;2023-09-19T08:10:41;18.40;99.90
6118;DHT22;3089;48.202;11.510;2023-09-19T08:13:10;18.20;99.90
6118;DHT22;3089;48.202;11.510;2023-09-19T08:15:44;18.40;99.90
6118;DHT22;3089;48.202;11.510;2023-09-19T08:18:13;18.40;99.90
6118;DHT22;3089;48.202;11.510;2023-09-19T08:20:43;18.30;99.90
6118;DHT22;3089;48.202;11.510;2023-09-19T08:23:13;18.40;99.90
6118;DHT22;3089;48.202;11.510;2023-09-19T08:25:41;18.30;99.90
6118;DHT22;3089;48.202;11.510;2023-09-19T08:28:09;18.40;99.90
6118;DHT22;3089;48.202;11.510;2023-09-19T08:30:40;18.60;99.90
6118;DHT22;3089;48.202;11.510;2023-09-19T08:33:09;18.70;99.90
6118;DHT22;3089;48.202;11.510;2023-09-19T08:35:38;18.50;99.90
6118;DHT22;3089;48.202;11.510;2023-09-19T08:38:08;18.90;99.90
6118;DHT22;3089;48.202;11.510;2023-09-19T08:40:38;19.50;99.90
6118;DHT22;3089;48.202;11.510;2023-09-19T08:43:08;19.00;99.90
6118;DHT22;3089;48.202;11.510;2023-09-19T08:45:37;18.70;99.90
6118;DHT22;3089;48.202;11.510;2023-09-19T08:48:16;18.50;99.90
6118;DHT22;3089;48.202;11.510;2023-09-19T08:50:49;18.40;99.90
6118;DHT22;3089;48.202;11.510;2023-09-19T08:53:26;18.60;99.90
6118;DHT22;3089;48.202;11.510;2023-09-19T08:55:56;18.50;99.90
6118;DHT22;3089;48.202;11.510;2023-09-19T08:58:27;18.70;99.90
6118;DHT22;3089;48.202;11.510;2023-09-19T09:01:00;18.60;99.90
6118;DHT22;3089;48.202;11.510;2023-09-19T09:03:32;18.60;99.90
6118;DHT22;3089;48.202;11.510;2023-09-19T09:06:02;18.60;99.90
6118;DHT22;3089;48.202;11.510;2023-09-19T09:08:31;18.50;99.90
6118;DHT22;3089;48.202;11.510;2023-09-19T09:10:59;18.50;99.90
6118;DHT22;3089;48.202;11.510;2023-09-19T09:13:27;18.40;99.90
6118;DHT22;3089;48.202;11.510;2023-09-19T09:15:55;18.60;99.90
6118;DHT22;3089;48.202;11.510;2023-09-19T09:18:25;18.60;99.90
6118;DHT22;3089;48.202;11.510;2023-09-19T09:20:54;18.70;99.90
6118;DHT22;3089;48.202;11.510;2023-09-19T09:23:22;18.60;99.90
6118;DHT22;3089;48.202;11.510;2023-09-19T09:25:53;18.60;99.90
6118;DHT22;3089;48.202;11.510;2023-09-19T09:28:28;18.70;99.90
6118;DHT22;3089;48.202;11.510;2023-09-19T09:30:57;18.80;99.90
6118;DHT22;3089;48.202;11.510;2023-09-19T09:33:26;18.90;99.90
6118;DHT22;3089;48.202;11.510;2023-09-19T09:35:58;19.00;99.90
6118;DHT22;3089;48.202;11.510;2023-09-19T09:38:28;19.00;99.90
6118;DHT22;3089;48.202;11.510;2023-09-19T09:40:59;19.10;99.90
6118;DHT22;3089;48.202;11.510;2023-09-19T09:43:31;19.40;99.90
6118;DHT22;3089;48.202;11.510;2023-09-19T09:46:13;19.40;99.90
6118;DHT22;3089;48.202;11.510;2023-09-19T09:49:01;19.20;99.90
6118;DHT22;3089;48.202;11.510;2023-09-19T09:51:49;18.90;99.90
6118;DHT22;3089;48.202;11.510;2023-09-19T09:54:27;18.90;99.90
6118;DHT22;3089;48.202;11.510;2023-09-19T09:57:02;18.80;99.90
6118;DHT22;3089;48.202;11.510;2023-09-19T09:59:50;18.90;99.90
6118;DHT22;3089;48.202;11.510;2023-09-19T10:02:21;19.20;99.90
6118;DHT22;3089;48.202;11.510;2023-09-19T10:04:56;19.40;99.90
6118;DHT22;3089;48.202;11.510;2023-09-19T10:07:38;20.00;99.90
6118;DHT22;3089;48.202;11.510;2023-09-19T10:10:10;20.40;99.90
6118;DHT22;3089;48.202;11.510;2023-09-19T10:12:44;19.70;99.90
6118;DHT22;3089;48.202;11.510;2023-09-19T10:15:17;19.70;99.90
6118;DHT22;3089;48.202;11.510;2023-09-19T10:17:47;19.60;99.90
6118;DHT22;3089;48.202;11.510;2023-09-19T10:20:16;19.50;99.90
6118;DHT22;3089;48.202;11.510;2023-09-19T10:23:08;19.60;99.90
6118;DHT22;3089;48.202;11.510;2023-09-19T10:25:42;20.20;99.90
6118;DHT22;3089;48.202;11.510;2023-09-19T10:28:13;20.40;99.90
6118;DHT22;3089;48.202;11.510;2023-09-19T10:30:42;20.40;99.90
6118;DHT22;3089;48.202;11.510;2023-09-19T10:33:12;20.30;99.90
6118;DHT22;3089;48.202;11.510;2023-09-19T10:35:43;20.40;99.90
6118;DHT22;3089;48.202;11.510;2023-09-19T10:38:14;20.40;99.90
6118;DHT22;3089;48.202;11.510;2023-09-19T10:40:49;20.30;99.90
6118;DHT22;3089;48.202;11.510;2023-09-19T10:43:19;20.50;99.90
6118;DHT22;3089;48.202;11.510;2023-09-19T10:45:49;20.70;99.90
6118;DHT22;3089;48.202;11.510;2023-09-19T10:48:20;20.90;99.90
6118;DHT22;3089;48.202;11.510;2023-09-19T10:50:56;21.10;99.90
6118;DHT22;3089;48.202;11.510;2023-09-19T10:53:30;20.90;99.90
6118;DHT22;3089;48.202;11.510;2023-09-19T10:56:07;21.40;99.90
6118;DHT22;3089;48.202;11.510;2023-09-19T10:58:43;21.80;99.90
6118;DHT22;3089;48.202;11.510;2023-09-19T11:01:12;21.60;99.90
6118;DHT22;3089;48.202;11.510;2023-09-19T11:03:42;21.60;99.90
6118;DHT22;3089;48.202;11.510;2023-09-19T11:06:16;21.80;99.90
6118;DHT22;3089;48.202;11.510;2023-09-19T11:09:00;21.40;99.90
6118;DHT22;3089;48.202;11.510;2023-09-19T11:11:50;21.60;99.90
6118;DHT22;3089;48.202;11.510;2023-09-19T11:14:30;21.80;99.90
6118;DHT22;3089;48.202;11.510;2023-09-19T11:20:23;21.30;99.90
6118;DHT22;3089;48.202;11.510;2023-09-19T11:23:19;21.00;99.90
6118;DHT22;3089;48.202;11.510;2023-09-19T11:25:51;20.70;99.90
6118;DHT22;3089;48.202;11.510;2023-09-19T11:28:31;20.60;99.90
6118;DHT22;3089;48.202;11.510;2023-09-19T11:30:59;20.50;99.90
6118;DHT22;3089;48.202;11.510;2023-09-19T11:33:27;20.90;99.90
6118;DHT22;3089;48.202;11.510;2023-09-19T11:36:02;21.20;99.90
6118;DHT22;3089;48.202;11.510;2023-09-19T11:38:58;21.40;99.90
6118;DHT22;3089;48.202;11.510;2023-09-19T11:41:39;21.50;99.90
6118;DHT22;3089;48.202;11.510;2023-09-19T11:44:33;21.70;99.90
6118;DHT22;3089;48.202;11.510;2023-09-19T11:47:04;21.60;99.90
6118;DHT22;3089;48.202;11.510;2023-09-19T11:49:33;21.40;99.90
6118;DHT22;3089;48.202;11.510;2023-09-19T11:52:04;21.70;99.90
6118;DHT22;3089;48.202;11.510;2023-09-19T11:54:35;21.60;99.90
6118;DHT22;3089;48.202;11.510;2023-09-19T11:57:08;21.40;99.90
6118;DHT22;3089;48.202;11.510;2023-09-19T11:59:39;21.20;99.90
6118;DHT22;3089;48.202;11.510;2023-09-19T12:02:07;21.10;99.90
6118;DHT22;3089;48.202;11.510;2023-09-19T12:04:38;21.10;99.90
6118;DHT22;3089;48.202;11.510;2023-09-19T12:07:09;21.50;99.90
6118;DHT22;3089;48.202;11.510;2023-09-19T12:09:44;21.80;99.90
6118;DHT22;3089;48.202;11.510;2023-09-19T12:12:21;22.00;99.90
6118;DHT22;3089;48.202;11.510;2023-09-19T12:14:50;22.00;99.90
6118;DHT22;3089;48.202;11.510;2023-09-19T12:17:18;21.80;99.90
6118;DHT22;3089;48.202;11.510;2023-09-19T12:19:53;21.70;99.90
6118;DHT22;3089;48.202;11.510;2023-09-19T12:22:21;21.70;99.90
6118;DHT22;3089;48.202;11.510;2023-09-19T12:24:49;21.30;99.90
6118;DHT22;3089;48.202;11.510;2023-09-19T12:27:22;21.50;99.90
6118;DHT22;3089;48.202;11.510;2023-09-19T12:29:53;21.50;99.90
6118;DHT22;3089;48.202;11.510;2023-09-19T12:32:34;21.20;99.90
6118;DHT22;3089;48.202;11.510;2023-09-19T12:35:02;21.20;99.90
6118;DHT22;3089;48.202;11.510;2023-09-19T12:37:37;21.30;99.90
6118;DHT22;3089;48.202;11.510;2023-09-19T12:40:13;21.00;99.90
6118;DHT22;3089;48.202;11.510;2023-09-19T12:42:47;21.20;99.90
6118;DHT22;3089;48.202;11.510;2023-09-19T12:45:15;21.10;99.90
6118;DHT22;3089;48.202;11.510;2023-09-19T12:51:03;21.00;99.90
6118;DHT22;3089;48.202;11.510;2023-09-19T12:53:34;20.70;99.90
6118;DHT22;3089;48.202;11.510;2023-09-19T12:56:07;20.70;99.90
6118;DHT22;3089;48.202;11.510;2023-09-19T12:58:50;20.80;99.90
6118;DHT22;3089;48.202;11.510;2023-09-19T13:01:21;20.20;99.90
6118;DHT22;3089;48.202;11.510;2023-09-19T13:04:13;20.60;99.90
6118;DHT22;3089;48.202;11.510;2023-09-19T13:06:45;20.90;99.90
6118;DHT22;3089;48.202;11.510;2023-09-19T13:09:16;21.10;99.90
6118;DHT22;3089;48.202;11.510;2023-09-19T13:11:44;21.20;99.90
6118;DHT22;3089;48.202;11.510;2023-09-19T13:14:18;21.20;99.90
6118;DHT22;3089;48.202;11.510;2023-09-19T13:16:56;21.30;99.90
6118;DHT22;3089;48.202;11.510;2023-09-19T13:19:38;21.10;99.90
6118;DHT22;3089;48.202;11.510;2023-09-19T13:22:39;21.20;99.90
6118;DHT22;3089;48.202;11.510;2023-09-19T13:25:10;21.20;99.90
6118;DHT22;3089;48.202;11.510;2023-09-19T13:27:42;21.30;99.90
6118;DHT22;3089;48.202;11.510;2023-09-19T13:30:13;21.50;99.90
6118;DHT22;3089;48.202;11.510;2023-09-19T13:32:41;21.60;99.90
6118;DHT22;3089;48.202;11.510;2023-09-19T13:35:10;21.40;99.90
6118;DHT22;3089;48.202;11.510;2023-09-19T13:37:40;21.20;99.90
6118;DHT22;3089;48.202;11.510;2023-09-19T13:40:10;21.10;99.90
6118;DHT22;3089;48.202;11.510;2023-09-19T13:42:39;21.20;99.90
6118;DHT22;3089;48.202;11.510;2023-09-19T13:45:08;21.40;99.90
6118;DHT22;3089;48.202;11.510;2023-09-19T13:47:40;21.80;99.90
6118;DHT22;3089;48.202;11.510;2023-09-19T13:50:08;21.70;99.90
6118;DHT22;3089;48.202;11.510;2023-09-19T13:52:37;21.30;99.90
6118;DHT22;3089;48.202;11.510;2023-09-19T13:55:05;21.40;99.90
6118;DHT22;3089;48.202;11.510;2023-09-19T13:57:34;21.90;99.90
6118;DHT22;3089;48.202;11.510;2023-09-19T14:00:02;22.00;99.90
6118;DHT22;3089;48.202;11.510;2023-09-19T14:02:31;21.80;99.90
6118;DHT22;3089;48.202;11.510;2023-09-19T14:05:01;21.50;99.90
6118;DHT22;3089;48.202;11.510;2023-09-19T14:07:29;21.60;99.90
6118;DHT22;3089;48.202;11.510;2023-09-19T14:09:57;21.50;99.90
6118;DHT22;3089;48.202;11.510;2023-09-19T14:12:24;21.70;99.90
6118;DHT22;3089;48.202;11.510;2023-09-19T14:14:53;21.60;99.90
6118;DHT22;3089;48.202;11.510;2023-09-19T14:17:22;21.50;99.90
6118;DHT22;3089;48.202;11.510;2023-09-19T14:19:52;21.50;99.90
6118;DHT22;3089;48.202;11.510;2023-09-19T14:22:21;21.70;99.90
6118;DHT22;3089;48.202;11.510;2023-09-19T14:24:49;21.60;99.90
6118;DHT22;3089;48.202;11.510;2023-09-19T14:27:18;21.20;99.90
6118;DHT22;3089;48.202;11.510;2023-09-19T14:29:46;21.20;99.90
6118;DHT22;3089;48.202;11.510;2023-09-19T14:32:14;21.00;99.90
6118;DHT22;3089;48.202;11.510;2023-09-19T14:34:43;21.40;99.90
6118;DHT22;3089;48.202;11.510;2023-09-19T14:37:11;21.20;99.90
6118;DHT22;3089;48.202;11.510;2023-09-19T14:39:40;21.00;99.90
6118;DHT22;3089;48.202;11.510;2023-09-19T14:42:11;21.10;99.90
6118;DHT22;3089;48.202;11.510;2023-09-19T14:44:41;20.90;99.90
6118;DHT22;3089;48.202;11.510;2023-09-19T14:47:09;21.10;99.90
6118;DHT22;3089;48.202;11.510;2023-09-19T14:49:40;20.80;99.90
6118;DHT22;3089;48.202;11.510;2023-09-19T14:52:11;20.80;99.90
6118;DHT22;3089;48.202;11.510;2023-09-19T14:54:43;21.00;99.90
6118;DHT22;3089;48.202;11.510;2023-09-19T14:57:11;21.30;99.90
6118;DHT22;3089;48.202;11.510;2023-09-19T14:59:40;20.80;99.90
6118;DHT22;3089;48.202;11.510;2023-09-19T15:02:08;21.00;99.90
6118;DHT22;3089;48.202;11.510;2023-09-19T15:04:36;20.90;99.90
6118;DHT22;3089;48.202;11.510;2023-09-19T15:07:08;20.90;99.90
6118;DHT22;3089;48.202;11.510;2023-09-19T15:09:36;21.10;99.90
6118;DHT22;3089;48.202;11.510;2023-09-19T15:12:06;21.00;99.90
6118;DHT22;3089;48.202;11.510;2023-09-19T15:14:34;21.30;99.90
6118;DHT22;3089;48.202;11.510;2023-09-19T15:17:02;21.20;99.90
6118;DHT22;3089;48.202;11.510;2023-09-19T15:19:31;21.10;99.90
6118;DHT22;3089;48.202;11.510;2023-09-19T15:21:59;21.00;99.90
6118;DHT22;3089;48.202;11.510;2023-09-19T15:24:28;20.90;99.90
6118;DHT22;3089;48.202;11.510;2023-09-19T15:26:56;20.90;99.90
6118;DHT22;3089;48.202;11.510;2023-09-19T15:29:25;20.90;99.90
6118;DHT22;3089;48.202;11.510;2023-09-19T15:31:55;20.70;99.90
6118;DHT22;3089;48.202;11.510;2023-09-19T15:34:25;21.00;99.90
6118;DHT22;3089;48.202;11.510;2023-09-19T15:36:53;21.10;99.90
6118;DHT22;3089;48.202;11.510;2023-09-19T15:39:21;20.90;99.90
6118;DHT22;3089;48.202;11.510;2023-09-19T15:41:50;20.80;99.90
6118;DHT22;3089;48.202;11.510;2023-09-19T15:44:18;20.90;99.90
6118;DHT22;3089;48.202;11.510;2023-09-19T15:46:48;20.90;99.90
6118;DHT22;3089;48.202;11.510;2023-09-19T15:49:16;20.90;99.90
6118;DHT22;3089;48.202;11.510;2023-09-19T15:51:44;21.10;99.90
6118;DHT22;3089;48.202;11.510;2023-09-19T15:54:13;20.90;99.90
6118;DHT22;3089;48.202;11.510;2023-09-19T15:56:42;20.90;99.90
6118;DHT22;3089;48.202;11.510;2023-09-19T15:59:11;21.00;99.90
6118;DHT22;3089;48.202;11.510;2023-09-19T16:01:40;21.00;99.90
6118;DHT22;3089;48.202;11.510;2023-09-19T16:04:11;20.80;99.90
6118;DHT22;3089;48.202;11.510;2023-09-19T16:06:40;20.70;99.90
6118;DHT22;3089;48.202;11.510;2023-09-19T16:09:08;20.50;99.90
6118;DHT22;3089;48.202;11.510;2023-09-19T16:11:37;20.50;99.90
6118;DHT22;3089;48.202;11.510;2023-09-19T16:14:05;20.30;99.90